createdAt,value
2023-04-08T00:00:10.402Z,67.08
2023-04-08T00:02:37.303Z,67.38
2023-04-08T00:05:04.971Z,67.49
2023-04-08T00:07:31.798Z,67.53
2023-04-08T00:09:58.356Z,67.06
2023-04-08T00:12:25.299Z,67.28
2023-04-08T00:14:51.999Z,66.37
2023-04-08T00:17:18.730Z,66.29
2023-04-08T00:19:45.320Z,66.04
2023-04-08T00:22:11.940Z,66.13
2023-04-08T00:24:40.484Z,66.87
2023-04-08T00:27:07.033Z,66.64
2023-04-08T00:29:33.587Z,66.27
2023-04-08T00:32:01.713Z,66.66
2023-04-08T00:34:28.348Z,66.27
2023-04-08T00:36:54.922Z,66.61
2023-04-08T00:39:21.546Z,66.62
2023-04-08T00:41:48.118Z,66.70
2023-04-08T00:44:15.302Z,67.06
2023-04-08T00:46:41.986Z,67.17
2023-04-08T00:49:08.795Z,67.82
2023-04-08T00:51:38.659Z,67.64
2023-04-08T00:54:06.243Z,67.37
2023-04-08T00:56:34.906Z,67.86
2023-04-08T00:59:01.765Z,67.74
2023-04-08T01:01:51.718Z,67.66
2023-04-08T01:04:47.042Z,67.37
2023-04-08T01:07:24.958Z,66.80
2023-04-08T01:10:22.303Z,66.24
2023-04-08T01:12:55.307Z,66.68
2023-04-08T01:15:24.065Z,67.20
2023-04-08T01:17:56.221Z,66.49
2023-04-08T01:20:26.065Z,66.69
2023-04-08T01:23:13.189Z,66.96
2023-04-08T01:25:39.834Z,67.48
2023-04-08T01:28:15.713Z,67.69
2023-04-08T01:30:46.255Z,67.22
2023-04-08T01:33:16.620Z,67.34
2023-04-08T01:35:45.345Z,67.86
2023-04-08T01:38:21.049Z,67.57
2023-04-08T01:40:49.535Z,67.72
2023-04-08T01:43:18.568Z,67.51
2023-04-08T01:45:48.176Z,67.91
2023-04-08T01:48:16.234Z,67.49
2023-04-08T01:50:45.391Z,67.94
2023-04-08T01:53:12.844Z,67.69
2023-04-08T01:55:42.468Z,68.15
2023-04-08T01:58:18.189Z,67.51
2023-04-08T02:00:46.488Z,67.51
2023-04-08T02:03:17.655Z,67.72
2023-04-08T02:05:44.383Z,67.50
2023-04-08T02:08:12.712Z,67.17
2023-04-08T02:10:39.346Z,67.49
2023-04-08T02:13:06.450Z,66.82
2023-04-08T02:15:43.053Z,66.92
2023-04-08T02:18:16.715Z,67.76
2023-04-08T02:21:03.586Z,67.12
2023-04-08T02:23:35.561Z,66.56
2023-04-08T02:26:07.679Z,66.08
2023-04-08T02:28:35.871Z,66.09
2023-04-08T02:31:04.085Z,66.04
2023-04-08T02:33:31.651Z,65.84
2023-04-08T02:35:59.752Z,66.19
2023-04-08T02:38:29.811Z,65.60
2023-04-08T02:40:56.874Z,65.65
2023-04-08T02:43:31.631Z,65.12
2023-04-08T02:46:05.867Z,65.46
2023-04-08T02:48:33.174Z,65.70
2023-04-08T02:50:59.783Z,65.42
2023-04-08T02:53:26.487Z,65.94
2023-04-08T02:55:53.255Z,65.67
2023-04-08T02:58:19.905Z,66.14
2023-04-08T03:00:46.618Z,65.61
2023-04-08T03:03:13.262Z,65.51
2023-04-08T03:05:39.855Z,65.63
2023-04-08T03:08:06.874Z,65.45
2023-04-08T03:10:33.622Z,65.77
2023-04-08T03:13:00.325Z,65.50
2023-04-08T03:15:27.438Z,65.42
2023-04-08T03:17:54.119Z,65.11
2023-04-08T03:20:20.753Z,65.56
2023-04-08T03:22:47.578Z,65.58
2023-04-08T03:25:14.192Z,65.70
2023-04-08T03:27:40.805Z,66.27
2023-04-08T03:30:08.516Z,66.17
2023-04-08T03:32:35.367Z,66.06
2023-04-08T03:35:01.979Z,66.19
2023-04-08T03:37:28.525Z,66.30
2023-04-08T03:39:56.137Z,66.46
2023-04-08T03:42:22.943Z,67.62
2023-04-08T03:44:49.641Z,67.24
2023-04-08T03:47:16.250Z,67.42
2023-04-08T03:49:42.799Z,67.45
2023-04-08T03:52:09.442Z,67.04
2023-04-08T03:54:36.016Z,66.97
2023-04-08T03:57:02.608Z,66.22
2023-04-08T03:59:29.274Z,66.31
2023-04-08T04:01:56.502Z,66.28
2023-04-08T04:04:24.585Z,65.74
2023-04-08T04:06:51.296Z,65.83
2023-04-08T04:09:17.939Z,65.40
2023-04-08T04:11:44.569Z,65.41
2023-04-08T04:14:11.161Z,65.00
2023-04-08T04:16:37.725Z,65.05
2023-04-08T04:19:04.368Z,64.82
2023-04-08T04:21:31.297Z,65.06
2023-04-08T04:23:57.857Z,65.51
2023-04-08T04:26:24.481Z,65.49
2023-04-08T04:28:51.198Z,65.98
2023-04-08T04:31:23.115Z,65.85
2023-04-08T04:33:49.809Z,66.39
2023-04-08T04:36:16.415Z,65.54
2023-04-08T04:38:43.552Z,65.12
2023-04-08T04:41:10.928Z,64.77
2023-04-08T04:43:37.901Z,64.51
2023-04-08T04:46:07.194Z,64.50
2023-04-08T04:48:34.226Z,64.58
2023-04-08T04:51:03.351Z,65.53
2023-04-08T04:53:33.235Z,65.41
2023-04-08T04:56:01.740Z,65.68
2023-04-08T04:58:29.007Z,64.97
2023-04-08T05:00:56.506Z,65.24
2023-04-08T05:03:23.533Z,65.63
2023-04-08T05:05:54.825Z,65.89
2023-04-08T05:08:22.218Z,65.70
2023-04-08T05:10:50.709Z,65.17
2023-04-08T05:13:18.683Z,64.82
2023-04-08T05:15:48.140Z,65.12
2023-04-08T05:18:14.800Z,64.70
2023-04-08T05:20:44.629Z,64.54
2023-04-08T05:23:11.196Z,65.11
2023-04-08T05:25:37.937Z,65.66
2023-04-08T05:28:04.684Z,66.02
2023-04-08T05:30:31.415Z,65.88
2023-04-08T05:33:00.350Z,65.70
2023-04-08T05:35:28.477Z,65.50
2023-04-08T05:37:55.388Z,65.67
2023-04-08T05:40:22.040Z,66.08
2023-04-08T05:42:48.732Z,66.05
2023-04-08T05:45:16.267Z,65.43
2023-04-08T05:47:42.980Z,65.66
2023-04-08T05:50:11.295Z,65.56
2023-04-08T05:52:38.040Z,66.23
2023-04-08T05:55:06.169Z,66.28
2023-04-08T05:57:32.742Z,66.02
2023-04-08T05:59:59.419Z,66.14
2023-04-08T06:02:26.172Z,65.41
2023-04-08T06:04:52.939Z,65.29
2023-04-08T06:07:19.625Z,65.28
2023-04-08T06:09:46.164Z,65.01
2023-04-08T06:12:12.718Z,64.78
2023-04-08T06:14:39.294Z,64.78
2023-04-08T06:17:06.299Z,65.42
2023-04-08T06:19:32.959Z,65.14
2023-04-08T06:21:59.560Z,65.36
2023-04-08T06:24:27.502Z,64.76
2023-04-08T06:26:54.211Z,64.85
2023-04-08T06:29:24.015Z,65.51
2023-04-08T06:31:51.242Z,65.50
2023-04-08T06:34:17.996Z,65.47
2023-04-08T06:36:44.597Z,65.69
2023-04-08T06:39:11.154Z,65.50
2023-04-08T06:41:37.819Z,65.80
2023-04-08T06:44:04.486Z,65.60
2023-04-08T06:46:31.312Z,65.15
2023-04-08T06:48:57.840Z,65.09
2023-04-08T06:51:24.380Z,65.07
2023-04-08T06:53:50.888Z,64.83
2023-04-08T06:56:17.711Z,65.51
2023-04-08T06:58:44.346Z,64.79
2023-04-08T07:01:11.213Z,64.85
2023-04-08T07:03:38.147Z,65.36
2023-04-08T07:06:05.175Z,65.17
2023-04-08T07:08:31.757Z,65.73
2023-04-08T07:10:58.320Z,65.47
2023-04-08T07:13:24.856Z,65.21
2023-04-08T07:15:52.074Z,65.12
2023-04-08T07:18:18.641Z,65.26
2023-04-08T07:20:45.482Z,65.28
2023-04-08T07:23:12.026Z,65.34
2023-04-08T07:25:38.598Z,65.34
2023-04-08T07:28:05.239Z,65.63
2023-04-08T07:30:31.973Z,65.23
2023-04-08T07:33:00.715Z,65.64
2023-04-08T07:35:27.940Z,65.20
2023-04-08T07:37:55.059Z,65.18
2023-04-08T07:40:21.662Z,64.91
2023-04-08T07:42:48.214Z,65.37
2023-04-08T07:45:15.428Z,65.48
2023-04-08T07:47:42.245Z,64.92
2023-04-08T07:50:09.283Z,65.57
2023-04-08T07:52:35.849Z,65.72
2023-04-08T07:55:02.608Z,65.28
2023-04-08T07:57:29.295Z,64.99
2023-04-08T07:59:56.190Z,64.56
2023-04-08T08:02:23.168Z,64.67
2023-04-08T08:04:50.218Z,64.52
2023-04-08T08:07:16.868Z,64.61
2023-04-08T08:09:43.556Z,64.25
2023-04-08T08:12:10.189Z,64.18
2023-04-08T08:14:36.832Z,64.31
2023-04-08T08:17:04.547Z,64.70
2023-04-08T08:19:31.147Z,64.33
2023-04-08T08:21:58.009Z,64.46
2023-04-08T08:24:25.894Z,64.97
2023-04-08T08:26:52.456Z,64.91
2023-04-08T08:29:19.074Z,64.69
2023-04-08T08:31:45.695Z,64.67
2023-04-08T08:34:12.301Z,64.44
2023-04-08T08:36:38.910Z,65.05
2023-04-08T08:39:05.619Z,65.09
2023-04-08T08:41:36.581Z,65.34
2023-04-08T08:44:07.400Z,65.58
2023-04-08T08:46:34.951Z,65.02
2023-04-08T08:49:02.290Z,65.42
2023-04-08T08:51:30.126Z,65.63
2023-04-08T08:53:56.746Z,65.79
2023-04-08T08:56:23.354Z,65.88
2023-04-08T08:58:49.910Z,65.66
2023-04-08T09:01:41.593Z,64.95
2023-04-08T09:04:18.569Z,64.93
2023-04-08T09:07:11.108Z,65.64
2023-04-08T09:09:59.526Z,65.13
2023-04-08T09:12:31.265Z,65.04
2023-04-08T09:15:10.037Z,64.59
2023-04-08T09:17:41.331Z,64.46
2023-04-08T09:20:13.449Z,64.63
2023-04-08T09:23:02.346Z,64.93
2023-04-08T09:25:34.029Z,64.61
2023-04-08T09:28:02.126Z,64.99
2023-04-08T09:30:28.964Z,64.82
2023-04-08T09:32:57.847Z,64.62
2023-04-08T09:35:25.921Z,64.74
2023-04-08T09:37:52.827Z,64.67
2023-04-08T09:40:19.647Z,64.46
2023-04-08T09:42:54.104Z,64.17
2023-04-08T09:45:21.928Z,64.18
2023-04-08T09:48:08.481Z,63.82
2023-04-08T09:50:44.004Z,64.05
2023-04-08T09:53:18.848Z,63.84
2023-04-08T09:55:53.247Z,64.37
2023-04-08T09:58:28.476Z,64.27
2023-04-08T10:00:55.845Z,64.70
2023-04-08T10:03:49.080Z,64.61
2023-04-08T10:06:17.125Z,63.73
2023-04-08T10:08:45.172Z,64.04
2023-04-08T10:11:12.054Z,63.82
2023-04-08T10:13:38.868Z,63.35
2023-04-08T10:16:27.136Z,63.61
2023-04-08T10:18:57.379Z,63.46
2023-04-08T10:21:48.491Z,62.99
2023-04-08T10:24:15.063Z,62.92
2023-04-08T10:26:44.532Z,63.48
2023-04-08T10:29:21.217Z,63.55
2023-04-08T10:31:50.688Z,63.75
2023-04-08T10:34:22.952Z,63.36
2023-04-08T10:36:49.939Z,63.18
2023-04-08T10:39:17.303Z,63.47
2023-04-08T10:41:45.891Z,63.47
2023-04-08T10:44:22.406Z,63.40
2023-04-08T10:46:51.458Z,63.93
2023-04-08T10:49:18.802Z,64.19
2023-04-08T10:51:46.992Z,64.33
2023-04-08T10:54:18.469Z,64.73
2023-04-08T10:56:51.366Z,64.16
2023-04-08T10:59:29.762Z,63.24
2023-04-08T11:01:56.533Z,63.31
2023-04-08T11:04:26.367Z,62.93
2023-04-08T11:06:53.724Z,62.80
2023-04-08T11:09:20.488Z,62.70
2023-04-08T11:11:47.417Z,60.02
2023-04-08T11:14:14.485Z,59.60
2023-04-08T11:16:41.508Z,59.63
2023-04-08T11:19:08.880Z,58.93
2023-04-08T11:21:37.506Z,58.39
2023-04-08T11:24:16.383Z,56.96
2023-04-08T11:26:43.499Z,57.39
2023-04-08T11:29:14.235Z,57.06
2023-04-08T11:31:43.864Z,55.82
2023-04-08T11:34:10.796Z,55.11
2023-04-08T11:36:41.517Z,53.84
2023-04-08T11:39:10.601Z,53.74
2023-04-08T11:41:41.347Z,53.44
2023-04-08T11:44:08.983Z,53.71
2023-04-08T11:46:36.586Z,53.07
2023-04-08T11:49:08.932Z,53.46
2023-04-08T11:51:54.985Z,54.05
2023-04-08T11:54:32.284Z,54.03
2023-04-08T11:56:59.611Z,53.61
2023-04-08T11:59:28.950Z,53.57
2023-04-08T12:01:56.462Z,53.38
2023-04-08T12:04:23.264Z,53.63
2023-04-08T12:06:50.032Z,54.45
2023-04-08T12:09:16.629Z,53.92
2023-04-08T12:11:43.274Z,53.80
2023-04-08T12:14:09.985Z,53.68
2023-04-08T12:16:36.692Z,54.20
2023-04-08T12:19:03.413Z,54.18
2023-04-08T12:21:29.978Z,53.87
2023-04-08T12:23:56.785Z,54.11
2023-04-08T12:26:24.237Z,53.64
2023-04-08T12:28:51.050Z,53.59
2023-04-08T12:31:17.643Z,53.39
2023-04-08T12:33:44.374Z,53.24
2023-04-08T12:36:13.426Z,52.88
2023-04-08T12:38:40.336Z,53.38
2023-04-08T12:41:07.649Z,53.84
2023-04-08T12:43:34.552Z,53.81
2023-04-08T12:46:01.958Z,54.09
2023-04-08T12:48:28.517Z,53.37
2023-04-08T12:50:55.076Z,53.14
2023-04-08T12:53:21.740Z,53.55
2023-04-08T12:55:49.204Z,53.68
2023-04-08T12:58:16.920Z,53.26
2023-04-08T13:00:46.542Z,53.30
2023-04-08T13:03:15.861Z,52.87
2023-04-08T13:05:43.880Z,52.71
2023-04-08T13:08:14.488Z,52.50
2023-04-08T13:10:42.593Z,51.56
2023-04-08T13:13:09.188Z,51.90
2023-04-08T13:15:35.823Z,52.71
2023-04-08T13:18:02.564Z,52.38
2023-04-08T13:20:29.220Z,51.57
2023-04-08T13:22:56.091Z,51.21
2023-04-08T13:25:22.789Z,51.76
2023-04-08T13:27:49.340Z,51.85
2023-04-08T13:30:16.463Z,52.03
2023-04-08T13:32:43.376Z,52.09
2023-04-08T13:35:10.118Z,52.09
2023-04-08T13:37:36.993Z,51.71
2023-04-08T13:40:04.765Z,51.36
2023-04-08T13:42:31.552Z,51.90
2023-04-08T13:44:58.311Z,51.63
2023-04-08T13:47:25.136Z,51.46
2023-04-08T13:49:51.911Z,51.64
2023-04-08T13:52:18.574Z,51.22
2023-04-08T13:54:45.178Z,51.57
2023-04-08T13:57:12.126Z,52.12
2023-04-08T13:59:38.719Z,50.37
2023-04-08T14:02:05.981Z,50.38
2023-04-08T14:04:32.910Z,50.45
2023-04-08T14:06:59.518Z,50.06
2023-04-08T14:09:26.116Z,50.09
2023-04-08T14:11:52.689Z,49.87
2023-04-08T14:14:19.306Z,50.49
2023-04-08T14:16:46.289Z,50.07
2023-04-08T14:19:13.630Z,50.08
2023-04-08T14:21:40.463Z,50.25
2023-04-08T14:24:08.148Z,50.84
2023-04-08T14:26:36.027Z,50.59
2023-04-08T14:29:05.049Z,50.29
2023-04-08T14:31:33.320Z,50.50
2023-04-08T14:34:00.944Z,51.00
2023-04-08T14:36:28.452Z,50.89
2023-04-08T14:38:55.899Z,51.14
2023-04-08T14:41:22.618Z,52.11
2023-04-08T14:43:49.545Z,51.57
2023-04-08T14:46:16.737Z,50.89
2023-04-08T14:48:43.400Z,50.89
2023-04-08T14:51:10.280Z,51.31
2023-04-08T14:53:36.943Z,51.51
2023-04-08T14:56:04.207Z,51.30
2023-04-08T14:58:31.076Z,51.78
2023-04-08T15:00:57.677Z,52.05
2023-04-08T15:03:24.400Z,51.81
2023-04-08T15:05:51.032Z,51.50
2023-04-08T15:08:17.759Z,51.42
2023-04-08T15:10:44.410Z,51.20
2023-04-08T15:13:11.191Z,51.13
2023-04-08T15:15:37.857Z,51.45
2023-04-08T15:18:04.476Z,51.59
2023-04-08T15:20:31.135Z,51.89
2023-04-08T15:22:57.705Z,52.29
2023-04-08T15:25:24.367Z,52.39
2023-04-08T15:27:50.976Z,51.84
2023-04-08T15:30:24.062Z,52.23
2023-04-08T15:32:52.249Z,52.49
2023-04-08T15:35:19.325Z,52.34
2023-04-08T15:37:46.032Z,52.42
2023-04-08T15:40:12.875Z,52.14
2023-04-08T15:42:39.529Z,52.03
2023-04-08T15:45:06.721Z,52.41
2023-04-08T15:47:35.159Z,52.68
2023-04-08T15:50:01.853Z,52.99
2023-04-08T15:52:28.487Z,52.71
2023-04-08T15:54:55.061Z,53.29
2023-04-08T15:57:26.390Z,53.25
2023-04-08T15:59:53.594Z,53.06
2023-04-08T16:02:20.611Z,52.69
2023-04-08T16:04:56.918Z,51.82
2023-04-08T16:07:23.478Z,52.16
2023-04-08T16:09:50.291Z,51.76
2023-04-08T16:12:16.844Z,51.95
2023-04-08T16:14:43.454Z,51.69
2023-04-08T16:17:10.088Z,52.54
2023-04-08T16:19:36.631Z,53.23
2023-04-08T16:22:03.420Z,53.71
2023-04-08T16:24:30.033Z,53.57
2023-04-08T16:26:57.702Z,54.01
2023-04-08T16:29:24.496Z,53.89
2023-04-08T16:31:53.175Z,53.93
2023-04-08T16:34:21.428Z,53.79
2023-04-08T16:36:48.072Z,53.75
2023-04-08T16:39:14.635Z,53.54
2023-04-08T16:41:41.283Z,53.05
2023-04-08T16:44:07.859Z,53.43
2023-04-08T16:46:34.431Z,53.75
2023-04-08T16:49:01.222Z,54.14
2023-04-08T16:51:28.439Z,54.31
2023-04-08T16:53:57.125Z,54.63
2023-04-08T16:56:25.178Z,54.79
2023-04-08T16:58:52.406Z,54.41
2023-04-08T17:01:19.726Z,55.23
2023-04-08T17:03:47.972Z,54.65
2023-04-08T17:06:14.704Z,54.66
2023-04-08T17:08:44.271Z,54.35
2023-04-08T17:11:14.338Z,55.04
2023-04-08T17:13:42.971Z,54.79
2023-04-08T17:16:15.679Z,54.86
2023-04-08T17:18:43.316Z,55.73
2023-04-08T17:21:10.679Z,55.90
2023-04-08T17:23:37.343Z,55.65
2023-04-08T17:26:10.042Z,55.65
2023-04-08T17:28:36.693Z,55.81
2023-04-08T17:31:03.593Z,55.81
2023-04-08T17:33:30.279Z,56.21
2023-04-08T17:35:57.006Z,56.34
2023-04-08T17:38:23.675Z,56.55
2023-04-08T17:40:50.938Z,56.19
2023-04-08T17:43:18.060Z,55.85
2023-04-08T17:45:45.027Z,56.03
2023-04-08T17:48:11.726Z,56.47
2023-04-08T17:50:38.354Z,56.06
2023-04-08T17:53:04.905Z,56.04
2023-04-08T17:55:31.459Z,56.09
2023-04-08T17:57:58.060Z,56.26
2023-04-08T18:00:26.198Z,56.48
2023-04-08T18:02:52.945Z,56.99
2023-04-08T18:05:20.202Z,56.46
2023-04-08T18:07:46.851Z,56.54
2023-04-08T18:10:13.603Z,56.66
2023-04-08T18:12:40.313Z,56.22
2023-04-08T18:15:07.682Z,56.71
2023-04-08T18:17:34.810Z,56.84
2023-04-08T18:20:01.483Z,57.71
2023-04-08T18:22:28.036Z,57.80
2023-04-08T18:24:54.645Z,57.76
2023-04-08T18:27:21.321Z,57.96
2023-04-08T18:29:48.078Z,58.02
2023-04-08T18:32:14.645Z,58.06
2023-04-08T18:34:41.664Z,58.08
2023-04-08T18:37:08.360Z,58.18
2023-04-08T18:39:34.964Z,58.07
2023-04-08T18:42:01.540Z,57.88
2023-04-08T18:44:28.609Z,58.58
2023-04-08T18:46:56.367Z,58.44
2023-04-08T18:49:23.312Z,58.83
2023-04-08T18:52:01.258Z,58.52
2023-04-08T18:54:28.919Z,58.60
2023-04-08T18:56:55.500Z,58.77
2023-04-08T18:59:23.311Z,58.88
2023-04-08T19:01:50.642Z,59.85
2023-04-08T19:04:18.158Z,59.58
2023-04-08T19:06:44.874Z,60.06
2023-04-08T19:09:11.560Z,60.07
2023-04-08T19:11:38.152Z,60.00
2023-04-08T19:14:04.869Z,60.18
2023-04-08T19:16:31.545Z,59.75
2023-04-08T19:18:58.190Z,59.87
2023-04-08T19:21:24.910Z,59.80
2023-04-08T19:23:51.637Z,60.02
2023-04-08T19:26:18.479Z,59.60
2023-04-08T19:28:46.134Z,59.83
2023-04-08T19:31:20.589Z,60.11
2023-04-08T19:33:47.767Z,59.62
2023-04-08T19:36:14.546Z,59.57
2023-04-08T19:38:41.429Z,60.35
2023-04-08T19:41:08.081Z,60.62
2023-04-08T19:43:34.674Z,60.93
2023-04-08T19:46:02.459Z,60.46
2023-04-08T19:48:29.383Z,60.46
2023-04-08T19:50:56.251Z,60.90
2023-04-08T19:53:22.838Z,60.78
2023-04-08T19:55:49.611Z,61.27
2023-04-08T19:58:16.611Z,61.18
2023-04-08T20:00:43.210Z,62.00
2023-04-08T20:03:10.134Z,61.71
2023-04-08T20:05:37.340Z,61.25
2023-04-08T20:08:03.987Z,61.41
2023-04-08T20:10:30.679Z,61.44
2023-04-08T20:12:57.332Z,61.14
2023-04-08T20:15:25.395Z,61.15
2023-04-08T20:17:53.292Z,60.94
2023-04-08T20:20:20.485Z,61.42
2023-04-08T20:22:47.150Z,61.30
2023-04-08T20:25:13.855Z,61.73
2023-04-08T20:27:41.317Z,61.86
2023-04-08T20:30:09.182Z,61.64
2023-04-08T20:32:36.302Z,61.97
2023-04-08T20:35:04.737Z,62.02
2023-04-08T20:37:33.187Z,61.42
2023-04-08T20:39:59.854Z,61.48
2023-04-08T20:42:26.624Z,61.99
2023-04-08T20:44:53.728Z,61.64
2023-04-08T20:47:20.838Z,61.86
2023-04-08T20:49:48.210Z,61.56
2023-04-08T20:52:14.779Z,61.98
2023-04-08T20:54:41.407Z,61.71
2023-04-08T20:57:08.035Z,61.42
2023-04-08T20:59:34.591Z,61.84
2023-04-08T21:02:01.326Z,61.54
2023-04-08T21:04:28.331Z,62.34
2023-04-08T21:06:54.960Z,62.65
2023-04-08T21:09:21.538Z,63.19
2023-04-08T21:11:48.125Z,63.74
2023-04-08T21:14:14.721Z,63.36
2023-04-08T21:16:41.404Z,63.04
2023-04-08T21:19:08.033Z,63.49
2023-04-08T21:21:34.568Z,62.80
2023-04-08T21:24:01.175Z,62.80
2023-04-08T21:26:27.750Z,62.57
2023-04-08T21:28:54.493Z,62.88
2023-04-08T21:31:21.152Z,62.44
2023-04-08T21:33:47.798Z,62.48
2023-04-08T21:36:14.657Z,62.04
2023-04-08T21:38:42.138Z,62.19
2023-04-08T21:41:08.843Z,62.04
2023-04-08T21:43:35.463Z,62.37
2023-04-08T21:46:02.108Z,62.20
2023-04-08T21:48:28.963Z,61.88
2023-04-08T21:50:55.786Z,61.92
2023-04-08T21:53:23.790Z,61.55
2023-04-08T21:55:50.392Z,61.63
2023-04-08T21:58:17.193Z,61.82
2023-04-08T22:00:44.686Z,61.90
2023-04-08T22:03:11.462Z,62.89
2023-04-08T22:05:38.241Z,62.55
2023-04-08T22:08:05.369Z,62.59
2023-04-08T22:10:31.979Z,62.66
2023-04-08T22:12:58.591Z,62.71
2023-04-08T22:15:25.381Z,62.29
2023-04-08T22:17:53.059Z,62.35
2023-04-08T22:20:19.790Z,62.77
2023-04-08T22:22:46.403Z,62.71
2023-04-08T22:25:13.026Z,62.87
2023-04-08T22:27:39.664Z,62.66
2023-04-08T22:30:07.301Z,62.69
2023-04-08T22:32:33.901Z,63.48
2023-04-08T22:35:00.488Z,63.25
2023-04-08T22:37:27.095Z,63.15
2023-04-08T22:39:53.671Z,63.20
2023-04-08T22:42:20.748Z,62.92
2023-04-08T22:44:47.274Z,62.91
2023-04-08T22:47:13.854Z,62.24
2023-04-08T22:49:42.578Z,62.29
2023-04-08T22:52:09.291Z,62.11
2023-04-08T22:54:36.363Z,62.14
2023-04-08T22:57:03.355Z,62.36
2023-04-08T22:59:29.931Z,62.70
2023-04-08T23:01:56.664Z,62.67
2023-04-08T23:04:23.273Z,63.02
2023-04-08T23:06:49.866Z,63.06
2023-04-08T23:09:16.522Z,63.38
2023-04-08T23:11:43.095Z,64.25
2023-04-08T23:14:10.990Z,64.00
2023-04-08T23:16:37.552Z,64.09
2023-04-08T23:19:04.132Z,63.87
2023-04-08T23:21:31.193Z,64.45
2023-04-08T23:23:57.791Z,63.86
2023-04-08T23:26:25.296Z,64.04
2023-04-08T23:28:52.139Z,63.93
2023-04-08T23:31:19.195Z,64.23
2023-04-08T23:33:45.837Z,64.24
2023-04-08T23:36:12.828Z,64.08
2023-04-08T23:38:39.568Z,64.01
2023-04-08T23:41:07.972Z,64.24
2023-04-08T23:43:35.945Z,64.79
2023-04-08T23:46:02.634Z,64.89
2023-04-08T23:48:29.175Z,65.78
2023-04-08T23:50:56.072Z,65.72
2023-04-08T23:53:23.100Z,65.80
2023-04-08T23:55:49.698Z,65.70
2023-04-08T23:58:16.420Z,65.53
